createdAt,value
2023-02-03T00:01:11.110Z,3.50
2023-02-03T00:03:16.146Z,3.90
2023-02-03T00:05:21.042Z,3.75
2023-02-03T00:07:26.146Z,4.00
2023-02-03T00:09:31.030Z,4.00
2023-02-03T00:11:41.582Z,3.42
2023-02-03T00:13:46.636Z,3.20
2023-02-03T00:15:51.576Z,4.10
2023-02-03T00:17:59.081Z,3.90
2023-02-03T00:20:04.135Z,3.95
2023-02-03T00:22:09.466Z,3.08
2023-02-03T00:24:14.480Z,3.65
2023-02-03T00:26:20.296Z,4.25
2023-02-03T00:28:31.930Z,3.45
2023-02-03T00:30:37.627Z,3.83
2023-02-03T00:32:42.713Z,3.50
2023-02-03T00:34:50.686Z,3.58
2023-02-03T00:36:55.850Z,3.88
2023-02-03T00:39:00.671Z,3.22
2023-02-03T00:41:05.589Z,3.30
2023-02-03T00:43:10.478Z,4.18
2023-02-03T00:45:18.474Z,3.10
2023-02-03T00:47:23.256Z,3.08
2023-02-03T00:49:28.959Z,3.85
2023-02-03T00:51:33.992Z,3.38
2023-02-03T00:53:41.929Z,3.10
2023-02-03T00:55:47.070Z,2.97
2023-02-03T00:57:51.875Z,3.75
2023-02-03T00:59:58.703Z,3.42
2023-02-03T01:02:06.611Z,3.83
2023-02-03T01:04:11.438Z,2.95
2023-02-03T01:06:19.299Z,3.67
2023-02-03T01:08:24.336Z,3.47
2023-02-03T01:10:29.436Z,3.47
2023-02-03T01:12:36.967Z,3.17
2023-02-03T01:14:41.846Z,3.22
2023-02-03T01:16:46.785Z,3.42
2023-02-03T01:18:54.974Z,3.22
2023-02-03T01:21:00.472Z,2.83
2023-02-03T01:23:05.343Z,3.63
2023-02-03T01:25:11.448Z,3.15
2023-02-03T01:27:16.310Z,3.15
2023-02-03T01:29:21.259Z,2.90
2023-02-03T01:31:29.626Z,3.20
2023-02-03T01:33:36.855Z,3.40
2023-02-03T01:35:44.612Z,3.40
2023-02-03T01:37:49.519Z,3.25
2023-02-03T01:39:54.574Z,3.17
2023-02-03T01:41:59.850Z,2.55
2023-02-03T01:44:25.923Z,2.92
2023-02-03T01:46:41.835Z,3.15
2023-02-03T01:48:48.285Z,2.90
2023-02-03T01:50:53.509Z,2.30
2023-02-03T01:53:08.076Z,3.22
2023-02-03T01:55:16.443Z,3.45
2023-02-03T01:57:26.146Z,2.88
2023-02-03T01:59:33.025Z,3.00
2023-02-03T02:01:40.856Z,2.55
2023-02-03T02:03:48.927Z,2.90
2023-02-03T02:05:57.549Z,2.80
2023-02-03T02:08:04.974Z,2.78
2023-02-03T02:10:10.851Z,3.20
2023-02-03T02:12:16.173Z,2.63
2023-02-03T02:14:21.501Z,3.60
2023-02-03T02:16:47.354Z,3.50
2023-02-03T02:19:14.967Z,3.47
2023-02-03T02:21:41.922Z,2.60
2023-02-03T02:24:18.528Z,3.10
2023-02-03T02:26:46.945Z,3.75
2023-02-03T02:29:16.110Z,2.70
2023-02-03T02:31:50.740Z,2.90
2023-02-03T02:34:03.673Z,3.28
2023-02-03T02:36:15.866Z,2.92
2023-02-03T02:38:37.013Z,2.58
2023-02-03T02:40:52.850Z,3.20
2023-02-03T02:43:09.200Z,3.15
2023-02-03T02:45:19.800Z,2.88
2023-02-03T02:47:26.724Z,3.40
2023-02-03T02:49:40.075Z,3.53
2023-02-03T02:51:48.800Z,2.42
2023-02-03T02:53:58.102Z,2.75
2023-02-03T02:56:07.250Z,2.65
2023-02-03T02:58:17.855Z,2.78
2023-02-03T03:00:23.872Z,2.58
2023-02-03T03:02:38.688Z,2.60
2023-02-03T03:04:54.139Z,3.47
2023-02-03T03:07:04.837Z,2.75
2023-02-03T03:09:12.786Z,2.40
2023-02-03T03:11:20.665Z,2.20
2023-02-03T03:13:29.237Z,2.33
2023-02-03T03:15:37.224Z,3.08
2023-02-03T03:17:49.953Z,3.00
2023-02-03T03:20:03.701Z,2.20
2023-02-03T03:22:12.431Z,2.05
2023-02-03T03:24:21.608Z,2.80
2023-02-03T03:26:31.711Z,2.67
2023-02-03T03:28:45.231Z,2.65
2023-02-03T03:30:50.517Z,3.00
2023-02-03T03:32:57.043Z,2.75
2023-02-03T03:35:06.179Z,2.83
2023-02-03T03:37:19.485Z,2.92
2023-02-03T03:39:31.381Z,2.55
2023-02-03T03:41:46.743Z,2.95
2023-02-03T03:43:52.830Z,2.42
2023-02-03T03:46:04.478Z,3.20
2023-02-03T03:48:15.281Z,2.60
2023-02-03T03:50:29.237Z,2.50
2023-02-03T03:52:41.809Z,2.70
2023-02-03T03:54:49.158Z,2.42
2023-02-03T03:57:01.503Z,3.20
2023-02-03T03:59:10.155Z,2.72
2023-02-03T04:01:18.265Z,2.33
2023-02-03T04:03:27.657Z,3.13
2023-02-03T04:05:36.701Z,2.63
2023-02-03T04:07:42.709Z,2.80
2023-02-03T04:09:50.122Z,2.17
2023-02-03T04:12:06.964Z,3.13
2023-02-03T04:14:11.787Z,2.40
2023-02-03T04:16:18.210Z,2.15
2023-02-03T04:18:23.042Z,2.53
2023-02-03T04:20:28.717Z,2.55
2023-02-03T04:22:37.031Z,2.65
2023-02-03T04:24:41.959Z,2.50
2023-02-03T04:26:48.499Z,2.00
2023-02-03T04:28:53.563Z,2.55
2023-02-03T04:31:00.043Z,2.30
2023-02-03T04:33:04.892Z,2.83
2023-02-03T04:35:11.216Z,3.17
2023-02-03T04:37:16.299Z,2.45
2023-02-03T04:39:23.821Z,2.10
2023-02-03T04:41:28.705Z,2.00
2023-02-03T04:43:33.806Z,3.45
2023-02-03T04:45:41.422Z,2.13
2023-02-03T04:47:46.555Z,2.00
2023-02-03T04:49:51.554Z,2.85
2023-02-03T04:51:57.133Z,2.80
2023-02-03T04:54:02.317Z,2.22
2023-02-03T04:56:10.248Z,2.97
2023-02-03T04:58:15.530Z,2.30
2023-02-03T05:00:20.823Z,2.22
2023-02-03T05:02:25.969Z,2.90
2023-02-03T05:04:31.369Z,2.20
2023-02-03T05:06:36.986Z,2.72
2023-02-03T05:08:41.952Z,3.55
2023-02-03T05:10:46.811Z,2.75
2023-02-03T05:12:54.166Z,2.60
2023-02-03T05:15:00.361Z,2.88
2023-02-03T05:17:05.144Z,2.50
2023-02-03T05:19:09.986Z,2.55
2023-02-03T05:21:17.727Z,2.45
2023-02-03T05:23:23.036Z,3.13
2023-02-03T05:25:28.043Z,2.75
2023-02-03T05:27:33.197Z,2.90
2023-02-03T05:29:40.593Z,3.00
2023-02-03T05:31:45.888Z,2.60
2023-02-03T05:33:53.814Z,2.88
2023-02-03T05:35:58.991Z,2.65
2023-02-03T05:38:04.180Z,3.30
2023-02-03T05:40:23.148Z,3.22
2023-02-03T05:42:28.068Z,3.22
2023-02-03T05:44:33.628Z,2.38
2023-02-03T05:46:41.838Z,2.47
2023-02-03T05:48:46.690Z,2.33
2023-02-03T05:50:51.531Z,2.15
2023-02-03T05:52:57.638Z,2.60
2023-02-03T05:55:02.620Z,2.53
2023-02-03T05:57:07.439Z,2.17
2023-02-03T05:59:12.621Z,2.40
2023-02-03T06:01:17.516Z,2.03
2023-02-03T06:03:25.325Z,2.63
2023-02-03T06:05:32.354Z,2.78
2023-02-03T06:07:37.082Z,2.85
2023-02-03T06:09:42.005Z,3.17
2023-02-03T06:11:46.788Z,2.42
2023-02-03T06:13:51.692Z,2.72
2023-02-03T06:15:58.188Z,2.58
2023-02-03T06:18:03.867Z,3.22
2023-02-03T06:20:16.577Z,2.40
2023-02-03T06:22:21.517Z,2.85
2023-02-03T06:24:27.089Z,2.88
2023-02-03T06:26:32.039Z,3.42
2023-02-03T06:28:38.348Z,2.65
2023-02-03T06:30:43.389Z,2.90
2023-02-03T06:32:48.782Z,2.78
2023-02-03T06:34:53.777Z,3.03
2023-02-03T06:37:03.077Z,2.97
2023-02-03T06:39:08.121Z,3.42
2023-02-03T06:41:13.040Z,3.75
2023-02-03T06:43:20.006Z,3.63
2023-02-03T06:45:25.258Z,2.50
2023-02-03T06:47:31.207Z,3.03
2023-02-03T06:49:36.441Z,3.22
2023-02-03T06:51:41.507Z,3.22
2023-02-03T06:53:49.120Z,2.85
2023-02-03T06:55:54.002Z,2.75
2023-02-03T06:57:59.252Z,3.05
2023-02-03T07:00:07.144Z,3.22
2023-02-03T07:02:14.235Z,2.60
2023-02-03T07:04:22.081Z,3.28
2023-02-03T07:06:29.410Z,3.20
2023-02-03T07:08:37.117Z,3.60
2023-02-03T07:10:47.037Z,2.97
2023-02-03T07:12:53.093Z,2.60
2023-02-03T07:15:00.998Z,3.08
2023-02-03T07:17:06.349Z,3.55
2023-02-03T07:19:11.283Z,3.70
2023-02-03T07:21:16.699Z,2.30
2023-02-03T07:23:21.847Z,3.47
2023-02-03T07:25:28.226Z,3.35
2023-02-03T07:27:38.772Z,3.75
2023-02-03T07:29:45.187Z,2.33
2023-02-03T07:31:50.076Z,2.90
2023-02-03T07:33:55.543Z,2.88
2023-02-03T07:36:03.683Z,2.60
2023-02-03T07:38:12.418Z,2.60
2023-02-03T07:40:18.313Z,2.45
2023-02-03T07:42:23.303Z,2.70
2023-02-03T07:44:31.393Z,3.38
2023-02-03T07:46:40.018Z,2.83
2023-02-03T07:48:45.389Z,2.58
2023-02-03T07:50:53.139Z,2.58
2023-02-03T07:53:01.593Z,3.05
2023-02-03T07:55:07.266Z,2.45
2023-02-03T07:57:12.477Z,2.78
2023-02-03T07:59:17.433Z,3.35
2023-02-03T08:01:25.322Z,2.70
2023-02-03T08:03:31.280Z,2.50
2023-02-03T08:05:36.480Z,2.58
2023-02-03T08:07:41.382Z,2.30
2023-02-03T08:09:46.790Z,2.63
2023-02-03T08:11:53.823Z,2.58
2023-02-03T08:14:01.076Z,2.78
2023-02-03T08:16:06.305Z,2.55
2023-02-03T08:18:14.155Z,2.53
2023-02-03T08:20:19.687Z,2.67
2023-02-03T08:22:28.033Z,2.50
2023-02-03T08:24:33.095Z,2.60
2023-02-03T08:26:39.400Z,2.33
2023-02-03T08:28:44.386Z,2.75
2023-02-03T08:30:49.605Z,3.05
2023-02-03T08:32:54.461Z,2.28
2023-02-03T08:35:02.162Z,2.50
2023-02-03T08:37:08.096Z,2.65
2023-02-03T08:39:13.981Z,2.45
2023-02-03T08:41:20.686Z,2.05
2023-02-03T08:43:29.139Z,2.80
2023-02-03T08:45:35.233Z,2.47
2023-02-03T08:47:40.497Z,2.30
2023-02-03T08:49:45.858Z,2.80
2023-02-03T08:51:53.846Z,2.97
2023-02-03T08:53:59.066Z,2.78
2023-02-03T08:56:10.258Z,3.17
2023-02-03T08:58:16.700Z,2.42
2023-02-03T09:00:22.896Z,2.42
2023-02-03T09:02:28.141Z,2.83
2023-02-03T09:04:33.966Z,2.92
2023-02-03T09:06:45.364Z,2.75
2023-02-03T09:08:53.389Z,3.42
2023-02-03T09:11:00.380Z,2.70
2023-02-03T09:13:05.489Z,2.65
2023-02-03T09:15:11.528Z,2.70
2023-02-03T09:17:16.345Z,3.58
2023-02-03T09:19:21.403Z,3.03
2023-02-03T09:21:33.588Z,2.63
2023-02-03T09:23:52.364Z,4.20
2023-02-03T09:25:58.169Z,4.32
2023-02-03T09:28:05.120Z,3.10
2023-02-03T09:30:11.427Z,2.83
2023-02-03T09:32:16.622Z,2.65
2023-02-03T09:34:23.587Z,2.72
2023-02-03T09:36:28.563Z,3.13
2023-02-03T09:38:35.079Z,3.00
2023-02-03T09:40:43.059Z,2.80
2023-02-03T09:43:16.881Z,3.60
2023-02-03T09:45:28.784Z,3.42
2023-02-03T09:47:38.064Z,2.42
2023-02-03T09:49:50.385Z,3.03
2023-02-03T09:52:01.039Z,2.87
2023-02-03T09:54:16.657Z,2.65
2023-02-03T09:56:30.561Z,3.03
2023-02-03T09:58:37.632Z,2.63
2023-02-03T10:00:46.578Z,3.20
2023-02-03T10:03:03.975Z,2.58
2023-02-03T10:05:20.192Z,2.83
2023-02-03T10:07:37.480Z,2.53
2023-02-03T10:09:58.131Z,2.47
2023-02-03T10:12:25.363Z,2.50
2023-02-03T10:14:49.967Z,2.47
2023-02-03T10:17:10.900Z,2.97
2023-02-03T10:19:23.686Z,2.78
2023-02-03T10:21:39.255Z,3.00
2023-02-03T10:23:46.769Z,2.80
2023-02-03T10:25:57.648Z,3.00
2023-02-03T10:28:11.878Z,3.15
2023-02-03T10:30:23.540Z,2.20
2023-02-03T10:32:31.316Z,2.85
2023-02-03T10:34:38.393Z,2.88
2023-02-03T10:36:57.756Z,2.65
2023-02-03T10:39:10.540Z,2.30
2023-02-03T10:41:16.198Z,2.70
2023-02-03T10:43:47.881Z,2.25
2023-02-03T10:45:53.000Z,3.05
2023-02-03T10:47:59.517Z,4.25
2023-02-03T10:50:09.045Z,2.22
2023-02-03T10:52:29.451Z,2.38
2023-02-03T10:54:36.829Z,2.22
2023-02-03T10:56:44.152Z,2.83
2023-02-03T10:58:57.902Z,2.55
2023-02-03T11:01:13.517Z,2.63
2023-02-03T11:03:28.514Z,2.80
2023-02-03T11:05:33.578Z,2.80
2023-02-03T11:07:41.152Z,2.67
2023-02-03T11:09:46.138Z,2.30
2023-02-03T11:11:51.222Z,2.47
2023-02-03T11:14:14.464Z,2.53
2023-02-03T11:16:21.388Z,3.00
2023-02-03T11:18:50.947Z,2.10
2023-02-03T11:20:56.855Z,2.42
2023-02-03T11:23:05.016Z,2.90
2023-02-03T11:25:30.694Z,2.58
2023-02-03T11:27:36.778Z,2.53
2023-02-03T11:29:46.849Z,3.60
2023-02-03T11:31:54.678Z,2.50
2023-02-03T11:34:04.941Z,2.45
2023-02-03T11:36:12.764Z,2.90
2023-02-03T11:38:33.062Z,2.75
2023-02-03T11:40:39.495Z,2.72
2023-02-03T11:42:47.090Z,2.35
2023-02-03T11:44:54.710Z,3.40
2023-02-03T11:47:03.566Z,2.65
2023-02-03T11:49:20.435Z,2.65
2023-02-03T11:51:36.830Z,2.22
2023-02-03T11:54:00.922Z,2.95
2023-02-03T11:56:20.384Z,2.90
2023-02-03T11:58:48.269Z,2.92
2023-02-03T12:01:09.275Z,2.60
2023-02-03T12:03:41.731Z,3.00
2023-02-03T12:06:04.169Z,3.22
2023-02-03T12:08:32.161Z,2.58
2023-02-03T12:11:00.845Z,2.45
2023-02-03T12:13:18.663Z,2.80
2023-02-03T12:15:37.098Z,2.13
2023-02-03T12:17:59.319Z,2.38
2023-02-03T12:20:23.414Z,3.08
2023-02-03T12:22:37.923Z,2.78
2023-02-03T12:24:57.770Z,2.80
2023-02-03T12:27:18.652Z,3.60
2023-02-03T12:29:27.828Z,2.78
2023-02-03T12:31:39.791Z,2.53
2023-02-03T12:33:53.503Z,2.75
2023-02-03T12:36:04.939Z,3.05
2023-02-03T12:38:16.525Z,2.95
2023-02-03T12:40:27.623Z,2.85
2023-02-03T12:42:39.581Z,2.70
2023-02-03T12:44:53.088Z,2.78
2023-02-03T12:47:05.508Z,2.28
2023-02-03T12:49:30.790Z,2.53
2023-02-03T12:51:44.406Z,3.05
2023-02-03T12:53:54.607Z,2.85
2023-02-03T12:56:06.057Z,2.70
2023-02-03T12:58:17.463Z,2.28
2023-02-03T13:00:32.947Z,2.53
2023-02-03T13:02:45.767Z,2.15
2023-02-03T13:04:58.033Z,3.70
2023-02-03T13:07:11.377Z,3.50
2023-02-03T13:09:29.013Z,2.67
2023-02-03T13:11:40.319Z,2.67
2023-02-03T13:13:51.068Z,3.15
2023-02-03T13:15:59.258Z,3.13
2023-02-03T13:18:09.749Z,2.60
2023-02-03T13:20:22.193Z,2.92
2023-02-03T13:22:28.258Z,3.33
2023-02-03T13:24:33.816Z,2.67
2023-02-03T13:27:14.167Z,2.85
2023-02-03T13:29:42.757Z,3.67
2023-02-03T13:32:02.743Z,3.20
2023-02-03T13:34:30.094Z,3.20
2023-02-03T13:37:15.578Z,2.90
2023-02-03T13:39:39.955Z,3.03
2023-02-03T13:41:53.204Z,2.83
2023-02-03T13:44:01.024Z,3.55
2023-02-03T13:46:09.100Z,2.28
2023-02-03T13:48:22.367Z,3.05
2023-02-03T13:50:30.686Z,3.22
2023-02-03T13:52:45.294Z,2.90
2023-02-03T13:54:53.299Z,3.08
2023-02-03T13:57:02.825Z,2.70
2023-02-03T13:59:33.277Z,2.97
2023-02-03T14:01:41.748Z,3.28
2023-02-03T14:03:51.302Z,3.22
2023-02-03T14:05:57.870Z,2.90
2023-02-03T14:08:56.760Z,3.60
2023-02-03T14:11:31.703Z,2.90
2023-02-03T14:13:36.818Z,3.70
2023-02-03T14:15:43.279Z,3.13
2023-02-03T14:18:00.412Z,3.30
2023-02-03T14:20:08.540Z,3.08
2023-02-03T14:22:20.450Z,3.53
2023-02-03T14:24:34.812Z,2.83
2023-02-03T14:26:48.858Z,3.72
2023-02-03T14:28:54.453Z,3.47
2023-02-03T14:31:23.136Z,2.58
2023-02-03T14:33:58.768Z,2.53
2023-02-03T14:36:03.923Z,3.13
2023-02-03T14:38:14.910Z,3.08
2023-02-03T14:40:35.846Z,3.53
2023-02-03T14:43:16.928Z,3.25
2023-02-03T14:45:50.978Z,3.80
2023-02-03T14:48:07.426Z,4.00
2023-02-03T14:50:28.131Z,3.63
2023-02-03T14:52:53.285Z,3.22
2023-02-03T14:55:28.013Z,4.63
2023-02-03T14:57:44.368Z,4.05
2023-02-03T14:59:51.992Z,5.28
2023-02-03T15:02:19.363Z,3.72
2023-02-03T15:04:26.579Z,4.30
2023-02-03T15:06:43.092Z,4.00
2023-02-03T15:08:49.342Z,3.83
2023-02-03T15:10:54.507Z,3.70
2023-02-03T15:13:30.930Z,3.45
2023-02-03T15:15:45.614Z,3.05
2023-02-03T15:17:51.278Z,3.30
2023-02-03T15:20:04.132Z,3.22
2023-02-03T15:22:21.955Z,3.45
2023-02-03T15:24:27.681Z,3.80
2023-02-03T15:26:33.587Z,3.53
2023-02-03T15:28:41.052Z,3.47
2023-02-03T15:30:47.474Z,3.05
2023-02-03T15:33:03.508Z,3.88
2023-02-03T15:35:13.166Z,3.53
2023-02-03T15:37:24.391Z,3.75
2023-02-03T15:39:40.034Z,3.53
2023-02-03T15:41:45.770Z,3.45
2023-02-03T15:44:01.377Z,4.40
2023-02-03T15:46:13.294Z,3.60
2023-02-03T15:48:33.972Z,4.05
2023-02-03T15:50:45.626Z,4.65
2023-02-03T15:52:52.404Z,3.55
2023-02-03T15:55:17.738Z,3.80
2023-02-03T15:57:27.901Z,4.43
2023-02-03T15:59:39.272Z,4.32
2023-02-03T16:01:44.532Z,3.70
2023-02-03T16:03:52.723Z,3.75
2023-02-03T16:05:58.062Z,4.13
2023-02-03T16:08:31.614Z,4.18
2023-02-03T16:10:37.849Z,3.95
2023-02-03T16:12:43.119Z,4.00
2023-02-03T16:14:52.299Z,3.70
2023-02-03T16:17:04.883Z,3.58
2023-02-03T16:19:17.410Z,3.80
2023-02-03T16:21:32.948Z,4.03
2023-02-03T16:23:38.521Z,3.60
2023-02-03T16:25:43.435Z,4.47
2023-02-03T16:28:10.618Z,4.32
2023-02-03T16:30:38.845Z,3.50
2023-02-03T16:32:56.680Z,3.90
2023-02-03T16:35:14.291Z,4.13
2023-02-03T16:37:39.539Z,3.67
2023-02-03T16:39:58.061Z,3.03
2023-02-03T16:42:18.443Z,3.50
2023-02-03T16:44:36.820Z,3.30
2023-02-03T16:46:58.023Z,3.45
2023-02-03T16:49:15.522Z,4.15
2023-02-03T16:51:21.737Z,4.03
2023-02-03T16:53:28.299Z,4.32
2023-02-03T16:55:33.409Z,4.18
2023-02-03T16:57:39.803Z,3.90
2023-02-03T16:59:45.488Z,3.42
2023-02-03T17:01:52.999Z,4.97
2023-02-03T17:03:59.155Z,4.07
2023-02-03T17:06:08.039Z,4.20
2023-02-03T17:08:14.758Z,4.75
2023-02-03T17:10:19.893Z,3.75
2023-02-03T17:12:26.008Z,3.63
2023-02-03T17:14:31.968Z,4.50
2023-02-03T17:16:37.167Z,3.97
2023-02-03T17:18:46.908Z,3.88
2023-02-03T17:20:51.742Z,4.40
2023-02-03T17:22:57.688Z,5.25
2023-02-03T17:25:02.651Z,4.28
2023-02-03T17:27:07.689Z,4.28
2023-02-03T17:29:14.035Z,4.18
2023-02-03T17:31:22.304Z,4.53
2023-02-03T17:33:30.197Z,4.65
2023-02-03T17:35:37.789Z,4.70
2023-02-03T17:37:42.769Z,4.13
2023-02-03T17:53:50.133Z,4.80
2023-02-03T17:55:55.331Z,5.20
2023-02-03T17:58:00.320Z,5.22
2023-02-03T18:00:06.626Z,6.13
2023-02-03T18:02:12.798Z,5.72
2023-02-03T18:04:20.635Z,5.75
2023-02-03T18:06:30.259Z,5.60
2023-02-03T18:08:35.547Z,5.00
2023-02-03T18:10:40.623Z,5.43
2023-02-03T18:12:45.657Z,4.63
2023-02-03T18:14:51.150Z,5.22
2023-02-03T18:16:56.090Z,5.57
2023-02-03T18:19:03.789Z,3.95
2023-02-03T18:21:10.640Z,4.25
2023-02-03T18:23:20.077Z,5.15
2023-02-03T18:25:24.749Z,5.80
2023-02-03T18:27:29.860Z,5.50
2023-02-03T18:29:35.104Z,4.78
2023-02-03T18:31:40.478Z,4.55
2023-02-03T18:33:46.764Z,4.00
2023-02-03T18:35:51.688Z,5.30
2023-02-03T18:37:56.978Z,4.25
2023-02-03T18:40:05.452Z,5.53
2023-02-03T18:42:10.297Z,4.03
2023-02-03T18:44:17.530Z,3.95
2023-02-03T18:46:24.156Z,5.03
2023-02-03T18:48:29.157Z,4.55
2023-02-03T18:50:36.681Z,4.65
2023-02-03T18:52:42.170Z,3.97
2023-02-03T18:54:48.432Z,4.65
2023-02-03T18:56:55.905Z,4.13
2023-02-03T18:59:01.841Z,4.22
2023-02-03T19:01:07.429Z,4.72
2023-02-03T19:03:12.507Z,4.40
2023-02-03T19:05:17.167Z,5.03
2023-02-03T19:07:22.112Z,4.65
2023-02-03T19:09:27.437Z,5.38
2023-02-03T19:11:33.995Z,5.03
2023-02-03T19:13:47.934Z,5.80
2023-02-03T19:15:54.768Z,5.93
2023-02-03T19:17:59.926Z,5.05
2023-02-03T19:20:09.012Z,5.47
2023-02-03T19:22:15.656Z,5.03
2023-02-03T19:24:21.708Z,5.05
2023-02-03T19:26:28.557Z,4.78
2023-02-03T19:28:35.452Z,4.90
2023-02-03T19:30:43.009Z,4.43
2023-02-03T19:32:50.719Z,6.50
2023-02-03T19:34:55.637Z,4.18
2023-02-03T19:37:00.934Z,4.93
2023-02-03T19:39:07.814Z,4.53
2023-02-03T19:41:12.743Z,4.45
2023-02-03T19:43:17.634Z,5.03
2023-02-03T19:45:22.964Z,5.10
2023-02-03T19:47:30.712Z,5.35
2023-02-03T19:49:36.745Z,4.55
2023-02-03T19:51:42.618Z,4.65
2023-02-03T19:53:47.815Z,4.90
2023-02-03T19:55:52.857Z,5.30
2023-02-03T19:58:01.148Z,4.97
2023-02-03T20:00:06.517Z,5.35
2023-02-03T20:02:14.818Z,4.75
2023-02-03T20:04:23.013Z,5.70
2023-02-03T20:06:29.002Z,4.57
2023-02-03T20:08:34.426Z,5.32
2023-02-03T20:10:39.931Z,5.22
2023-02-03T20:12:48.457Z,4.60
2023-02-03T20:14:53.571Z,6.18
2023-02-03T20:16:59.354Z,5.93
2023-02-03T20:19:04.455Z,3.97
2023-02-03T20:21:13.792Z,5.38
2023-02-03T20:23:19.132Z,3.97
2023-02-03T20:25:24.135Z,4.22
2023-02-03T20:27:29.235Z,4.95
2023-02-03T20:29:37.001Z,4.93
2023-02-03T20:31:47.901Z,4.32
2023-02-03T20:34:10.121Z,5.90
2023-02-03T20:36:17.866Z,4.38
2023-02-03T20:38:56.137Z,5.30
2023-02-03T20:41:19.163Z,4.95
2023-02-03T20:43:25.658Z,4.50
2023-02-03T20:45:31.198Z,5.75
2023-02-03T20:47:36.888Z,4.47
2023-02-03T20:49:41.963Z,5.20
2023-02-03T20:51:49.618Z,4.82
2023-02-03T20:53:56.567Z,5.00
2023-02-03T20:56:03.656Z,5.13
2023-02-03T20:58:19.558Z,4.95
2023-02-03T21:00:26.586Z,5.30
2023-02-03T21:02:53.787Z,5.28
2023-02-03T21:05:00.367Z,4.28
2023-02-03T21:07:15.857Z,4.70
2023-02-03T21:09:24.042Z,4.13
2023-02-03T21:11:28.956Z,4.95
2023-02-03T21:13:38.596Z,5.32
2023-02-03T21:15:43.817Z,4.97
2023-02-03T21:17:48.740Z,4.75
2023-02-03T21:19:54.423Z,5.35
2023-02-03T21:22:00.589Z,4.65
2023-02-03T21:24:27.922Z,5.78
2023-02-03T21:26:37.165Z,5.45
2023-02-03T21:28:41.882Z,5.00
2023-02-03T21:30:46.770Z,5.75
2023-02-03T21:32:51.734Z,5.03
2023-02-03T21:34:56.842Z,5.80
2023-02-03T21:37:15.017Z,5.82
2023-02-03T21:39:30.173Z,4.85
2023-02-03T21:41:36.858Z,4.68
2023-02-03T21:43:41.870Z,5.88
2023-02-03T21:45:48.070Z,3.92
2023-02-03T21:47:54.681Z,4.30
2023-02-03T21:50:04.236Z,4.03
2023-02-03T21:52:14.512Z,4.47
2023-02-03T21:54:30.483Z,4.97
2023-02-03T21:56:41.776Z,4.97
2023-02-03T21:58:48.133Z,5.45
2023-02-03T22:00:54.224Z,5.35
2023-02-03T22:03:08.303Z,5.28
2023-02-03T22:05:19.304Z,4.80
2023-02-03T22:07:24.538Z,5.10
2023-02-03T22:09:32.162Z,4.90
2023-02-03T22:11:38.599Z,6.72
2023-02-03T22:13:44.021Z,4.63
2023-02-03T22:15:50.548Z,5.97
2023-02-03T22:17:55.516Z,4.65
2023-02-03T22:20:00.352Z,4.63
2023-02-03T22:22:05.491Z,5.55
2023-02-03T22:24:10.511Z,4.47
2023-02-03T22:26:20.288Z,4.88
2023-02-03T22:28:25.191Z,5.65
2023-02-03T22:30:30.626Z,5.53
2023-02-03T22:32:37.830Z,5.50
2023-02-03T22:34:42.877Z,4.50
2023-02-03T22:36:50.223Z,5.05
2023-02-03T22:38:55.318Z,4.22
2023-02-03T22:41:00.194Z,5.65
2023-02-03T22:43:07.791Z,4.35
2023-02-03T22:45:16.000Z,4.60
2023-02-03T22:47:22.212Z,4.93
2023-02-03T22:49:27.251Z,4.85
2023-02-03T22:51:32.039Z,4.72
2023-02-03T22:53:39.545Z,4.68
2023-02-03T22:55:46.892Z,5.10
2023-02-03T22:57:52.742Z,5.18
2023-02-03T23:00:00.569Z,5.25
2023-02-03T23:04:24.985Z,5.25
2023-02-03T23:06:29.875Z,4.50
2023-02-03T23:08:35.150Z,5.00
2023-02-03T23:10:40.569Z,4.00
2023-02-03T23:12:45.523Z,4.32
2023-02-03T23:14:51.268Z,4.28
2023-02-03T23:16:59.033Z,4.40
2023-02-03T23:19:03.957Z,5.30
2023-02-03T23:21:11.651Z,5.50
2023-02-03T23:23:16.881Z,4.38
2023-02-03T23:25:22.423Z,4.15
2023-02-03T23:27:27.453Z,5.13
2023-02-03T23:29:33.109Z,5.47
2023-02-03T23:31:39.437Z,3.63
2023-02-03T23:34:07.043Z,4.43
2023-02-03T23:36:10.619Z,4.65
2023-02-03T23:38:15.797Z,5.53
2023-02-03T23:40:21.082Z,4.18
2023-02-03T23:42:25.819Z,4.03
2023-02-03T23:44:30.584Z,3.92
2023-02-03T23:46:38.942Z,4.68
2023-02-03T23:48:46.447Z,4.20
2023-02-03T23:50:52.090Z,5.55
2023-02-03T23:52:56.921Z,4.38
2023-02-03T23:55:07.203Z,4.88
2023-02-03T23:57:12.089Z,4.90
2023-02-03T23:59:16.842Z,4.82
